Terminal Aerodrome Forecast
Issued by NWS

Home | Current Version | Previous Version | Text Only | Print | Product List | Glossary On
Versions: 1 2 3 4 5 6 7 8 9 10 11 12 13 14 15 16
000
FTUS43 KTOP 060500
TAFMHK
TAF
KMHK 060520Z 0606/0706 17007KT P6SM SKC
     FM060800 20008KT P6SM SCT120 WS008/23040KT
     FM061400 24010KT P6SM SKC=

USA.gov is the U.S. government's official web portal to all federal, state and local government web resources and services.